Time;durP1;ratioP1;P1;durP2;ratioP2;P2;SDS_P1;SDS_P2;PMS_P1;PMS_P2;Temp;Humidity;BMP_temperature;BMP_pressure;BME280_temperature;BME280_humidity;BME280_pressure;Samples;Min_cycle;Max_cycle;Signal;HPM_P1;HPM_P2
2023/02/12 00:01:30;;;;;;;25.27;11.77;;;;;;;-146.47;100.00;65468.63;4706709;30;20057;-79
2023/02/12 00:03:56;;;;;;;28.75;11.95;;;;;;;-146.47;100.00;65468.63;4702522;30;20068;-79
2023/02/12 00:06:22;;;;;;;24.98;10.75;;;;;;;-146.47;100.00;65468.63;4705671;30;20042;-79
2023/02/12 00:08:50;;;;;;;31.35;12.70;;;;;;;-146.47;100.00;65468.63;4715804;30;20064;-81
2023/02/12 00:11:18;;;;;;;23.83;11.18;;;;;;;-146.47;100.00;65468.63;4710339;30;20049;-79
2023/02/12 00:13:44;;;;;;;25.42;11.88;;;;;;;-146.47;100.00;65468.63;4716345;30;20584;-79
2023/02/12 00:16:13;;;;;;;24.10;11.45;;;;;;;-146.47;100.00;65468.63;4709199;30;20046;-79
2023/02/12 00:18:39;;;;;;;28.08;12.05;;;;;;;-146.47;100.00;65468.63;4706185;30;20052;-80
2023/02/12 00:21:07;;;;;;;29.65;12.00;;;;;;;-146.47;100.00;65468.63;4712899;30;20045;-80
2023/02/12 00:23:33;;;;;;;25.35;11.68;;;;;;;-146.47;100.00;65468.63;4704707;30;20053;-79
2023/02/12 00:25:59;;;;;;;27.10;11.90;;;;;;;-146.47;100.00;65468.63;4710689;30;20072;-80
2023/02/12 00:28:25;;;;;;;23.88;10.50;;;;;;;-146.47;100.00;65468.63;4707564;30;20071;-80
2023/02/12 00:30:51;;;;;;;25.83;11.43;;;;;;;-146.47;100.00;65468.63;4711666;30;20057;-80
2023/02/12 00:33:16;;;;;;;24.10;11.00;;;;;;;-146.47;100.00;65468.63;4711874;30;20497;-79
2023/02/12 00:35:43;;;;;;;30.48;10.77;;;;;;;-146.47;100.00;65468.63;4715617;30;20108;-79
2023/02/12 00:38:08;;;;;;;23.27;10.98;;;;;;;-146.47;100.00;65468.63;4710477;30;20189;-79
2023/02/12 00:40:34;;;;;;;23.25;11.10;;;;;;;-146.47;100.00;65468.63;4710975;30;20514;-79
2023/02/12 00:42:59;;;;;;;26.17;10.55;;;;;;;-146.47;100.00;65468.63;4711010;30;20095;-79
2023/02/12 00:45:25;;;;;;;29.25;11.32;;;;;;;-146.47;100.00;65468.63;4713276;30;20045;-79
2023/02/12 00:47:50;;;;;;;26.25;10.70;;;;;;;-146.47;100.00;65468.63;4704981;30;20052;-79
2023/02/12 00:50:16;;;;;;;24.95;10.57;;;;;;;-146.47;100.00;65468.63;4707759;30;20053;-79
2023/02/12 00:52:42;;;;;;;28.33;10.02;;;;;;;-146.47;100.00;65468.63;4711514;30;20544;-80
2023/02/12 00:55:08;;;;;;;23.80;10.18;;;;;;;-146.47;100.00;65468.63;4715328;30;20049;-80
2023/02/12 00:57:33;;;;;;;22.73;10.02;;;;;;;-146.47;100.00;65468.63;4721048;30;20647;-80
2023/02/12 00:59:59;;;;;;;27.35;11.05;;;;;;;-146.47;100.00;65468.63;4711709;30;20065;-80
2023/02/12 01:02:24;;;;;;;23.27;10.20;;;;;;;-146.47;100.00;65468.63;4706401;30;20124;-79
2023/02/12 01:04:50;;;;;;;22.83;10.10;;;;;;;-146.47;100.00;65468.63;4713993;30;20058;-80
2023/02/12 01:07:16;;;;;;;25.77;9.90;;;;;;;-146.47;100.00;65468.63;4712955;30;20042;-81
2023/02/12 01:09:41;;;;;;;24.42;10.40;;;;;;;-146.47;100.00;65468.63;4705378;30;20534;-80
2023/02/12 01:12:07;;;;;;;22.75;10.73;;;;;;;-146.47;100.00;65468.63;4707456;30;20057;-80
2023/02/12 01:14:33;;;;;;;28.08;11.23;;;;;;;-146.47;100.00;65468.63;4707056;30;20054;-80
2023/02/12 01:16:58;;;;;;;27.48;11.48;;;;;;;-146.47;100.00;65468.63;4708512;30;20057;-80
2023/02/12 01:19:24;;;;;;;27.90;11.13;;;;;;;-146.47;100.00;65468.63;4705562;30;20052;-80
2023/02/12 01:21:50;;;;;;;23.77;11.65;;;;;;;-146.47;100.00;65468.63;4703131;30;20041;-80
2023/02/12 01:24:15;;;;;;;23.38;11.20;;;;;;;-146.47;100.00;65468.63;4712442;30;20056;-80
2023/02/12 01:26:41;;;;;;;27.05;11.75;;;;;;;-146.47;100.00;65468.63;4712209;30;20069;-80
2023/02/12 01:29:07;;;;;;;26.40;12.05;;;;;;;-146.47;100.00;65468.63;4709076;30;20103;-80
2023/02/12 01:31:37;;;;;;;25.08;11.88;;;;;;;-146.47;100.00;65468.63;4709706;30;20503;-80
2023/02/12 01:34:04;;;;;;;24.77;11.07;;;;;;;-146.47;100.00;65468.63;4711584;30;20041;-80
2023/02/12 01:36:30;;;;;;;25.13;10.27;;;;;;;-146.47;100.00;65468.63;4708947;30;20713;-80
2023/02/12 01:39:01;;;;;;;24.48;11.23;;;;;;;-146.47;100.00;65468.63;4710573;30;20046;-80
2023/02/12 01:41:30;;;;;;;25.17;11.27;;;;;;;-146.47;100.00;65468.63;4709335;30;20505;-80
2023/02/12 01:44:09;;;;;;;22.52;10.00;;;;;;;-146.47;100.00;65468.63;4706718;30;20053;-80
2023/02/12 01:46:35;;;;;;;24.70;11.30;;;;;;;-146.47;100.00;65468.63;4708930;30;20155;-80
2023/02/12 01:49:03;;;;;;;26.27;10.77;;;;;;;-146.47;100.00;65468.63;4713134;30;20053;-80
2023/02/12 01:51:30;;;;;;;21.13;9.90;;;;;;;-146.47;100.00;65468.63;4713620;30;20053;-81
2023/02/12 01:54:00;;;;;;;25.67;10.10;;;;;;;-146.47;100.00;65468.63;4714402;30;20732;-80
2023/02/12 01:56:26;;;;;;;29.38;11.38;;;;;;;-146.47;100.00;65468.63;4712005;30;20052;-80
2023/02/12 01:58:54;;;;;;;23.23;10.30;;;;;;;-146.47;100.00;65468.63;4711720;30;20049;-80
2023/02/12 02:01:26;;;;;;;25.90;11.07;;;;;;;-146.47;100.00;65468.63;4710718;30;20049;-80
2023/02/12 02:03:57;;;;;;;23.92;10.82;;;;;;;-146.47;100.00;65468.63;4707274;30;20064;-80
2023/02/12 02:06:30;;;;;;;26.13;10.55;;;;;;;-146.47;100.00;65468.63;4701629;30;20049;-80
2023/02/12 02:08:56;;;;;;;22.85;9.80;;;;;;;-146.47;100.00;65468.63;4706806;30;20052;-80
2023/02/12 02:17:02;;;;;;;21.23;9.70;;;;;;;-146.47;100.00;65468.63;4705121;30;20057;-80
2023/02/12 02:19:46;;;;;;;21.92;10.02;;;;;;;-146.47;100.00;65468.63;4710299;30;20081;-80
2023/02/12 02:22:40;;;;;;;21.75;9.88;;;;;;;-146.47;100.00;65468.63;4704818;30;20061;-80
2023/02/12 02:25:08;;;;;;;21.17;9.95;;;;;;;-146.47;100.00;65468.63;4709297;30;20438;-80
2023/02/12 02:27:56;;;;;;;25.33;11.40;;;;;;;-146.47;100.00;65468.63;4713388;30;20111;-80
2023/02/12 02:30:29;;;;;;;26.60;11.60;;;;;;;-146.47;100.00;65468.63;4714491;30;20475;-80
2023/02/12 02:33:14;;;;;;;24.30;10.85;;;;;;;-146.47;100.00;65468.63;4706735;30;20057;-80
2023/02/12 02:36:06;;;;;;;26.63;10.90;;;;;;;-146.47;100.00;65468.63;4703564;30;20079;-80
2023/02/12 02:38:45;;;;;;;26.90;10.95;;;;;;;-146.47;100.00;65468.63;4695313;30;20060;-80
2023/02/12 02:41:29;;;;;;;25.55;10.35;;;;;;;-146.47;100.00;65468.63;4703264;30;20057;-80
2023/02/12 02:43:55;;;;;;;22.13;10.60;;;;;;;-146.47;100.00;65468.63;4705160;30;20530;-80
2023/02/12 02:46:33;;;;;;;28.38;10.98;;;;;;;-146.47;100.00;65468.63;4700410;30;20038;-80
2023/02/12 02:49:03;;;;;;;24.80;10.93;;;;;;;-146.47;100.00;65468.63;4700841;30;20048;-80
2023/02/12 02:51:37;;;;;;;22.75;10.95;;;;;;;-146.47;100.00;65468.63;4719296;30;20042;-81
2023/02/12 02:54:06;;;;;;;25.63;10.60;;;;;;;-146.47;100.00;65468.63;4715053;30;20060;-80
2023/02/12 02:56:35;;;;;;;32.92;11.32;;;;;;;-146.47;100.00;65468.63;4706249;30;20045;-80
2023/02/12 02:59:10;;;;;;;25.85;12.40;;;;;;;-146.47;100.00;65468.63;4703708;30;20057;-80
2023/02/12 03:01:42;;;;;;;23.80;11.05;;;;;;;-146.47;100.00;65468.63;4709248;30;20045;-81
2023/02/12 03:04:18;;;;;;;28.02;11.65;;;;;;;-146.47;100.00;65468.63;4703281;30;20056;-80
2023/02/12 03:06:58;;;;;;;26.63;11.32;;;;;;;-146.47;100.00;65468.63;4709419;30;20050;-80
2023/02/12 03:09:45;;;;;;;27.23;11.55;;;;;;;-146.47;100.00;65468.63;4704061;30;20053;-81
2023/02/12 03:12:19;;;;;;;24.70;11.40;;;;;;;-146.47;100.00;65468.63;4708199;30;20079;-80
2023/02/12 03:14:58;;;;;;;32.60;11.73;;;;;;;-146.47;100.00;65468.63;4713189;30;20525;-80
2023/02/12 03:17:30;;;;;;;25.92;11.57;;;;;;;-146.47;100.00;65468.63;4701153;30;20455;-80
2023/02/12 03:20:11;;;;;;;27.67;12.10;;;;;;;-146.47;100.00;65468.63;4710257;30;20052;-80
2023/02/12 03:22:45;;;;;;;25.50;11.30;;;;;;;-146.47;100.00;65468.63;4705388;30;20046;-80
2023/02/12 03:25:13;;;;;;;26.70;11.35;;;;;;;-146.47;100.00;65468.63;4713691;30;20498;-79
2023/02/12 03:28:00;;;;;;;25.52;11.02;;;;;;;-146.47;100.00;65468.63;4704796;30;20046;-79
2023/02/12 03:30:37;;;;;;;27.85;12.85;;;;;;;-146.47;100.00;65468.63;4706872;30;20465;-80
2023/02/12 03:33:17;;;;;;;29.17;12.35;;;;;;;-146.47;100.00;65468.63;4703088;30;20058;-79
2023/02/12 03:35:55;;;;;;;27.33;12.48;;;;;;;-146.47;100.00;65468.63;4706623;30;20053;-79
2023/02/12 03:38:29;;;;;;;29.63;11.88;;;;;;;-146.47;100.00;65468.63;4707739;30;20251;-80
2023/02/12 03:41:02;;;;;;;24.02;12.48;;;;;;;-146.47;100.00;65468.63;4711178;30;20041;-80
2023/02/12 03:43:37;;;;;;;29.33;12.38;;;;;;;-146.47;100.00;65468.63;4702780;30;20049;-80
2023/02/12 03:46:16;;;;;;;24.30;11.50;;;;;;;-146.47;100.00;65468.63;4705576;30;20045;-79
2023/02/12 03:48:54;;;;;;;31.25;12.40;;;;;;;-146.47;100.00;65468.63;4711933;30;20053;-79
2023/02/12 03:51:25;;;;;;;24.75;10.93;;;;;;;-146.47;100.00;65468.63;4706648;30;20060;-79
2023/02/12 03:53:51;;;;;;;26.55;11.90;;;;;;;-146.47;100.00;65468.63;4708053;30;20049;-79
2023/02/12 03:56:24;;;;;;;26.48;13.00;;;;;;;-146.47;100.00;65468.63;4700870;30;20115;-79
2023/02/12 03:58:49;;;;;;;26.52;11.50;;;;;;;-146.47;100.00;65468.63;4706292;30;20045;-79
2023/02/12 04:01:16;;;;;;;27.73;12.80;;;;;;;-146.47;100.00;65468.63;4703254;30;20136;-80
2023/02/12 04:03:41;;;;;;;27.70;11.18;;;;;;;-146.47;100.00;65468.63;4699829;30;20057;-79
2023/02/12 04:06:19;;;;;;;23.40;11.27;;;;;;;-146.47;100.00;65468.63;4711116;30;20626;-80
2023/02/12 04:08:45;;;;;;;27.17;11.25;;;;;;;-146.47;100.00;65468.63;4707748;30;20053;-80
2023/02/12 04:11:15;;;;;;;26.58;11.15;;;;;;;-146.47;100.00;65468.63;4706219;30;20053;-80
2023/02/12 04:13:52;;;;;;;29.35;11.88;;;;;;;-146.47;100.00;65468.63;4713264;30;20057;-80
2023/02/12 04:16:27;;;;;;;26.00;11.32;;;;;;;-146.47;100.00;65468.63;4711518;30;20096;-80
2023/02/12 04:18:53;;;;;;;28.33;11.55;;;;;;;-146.47;100.00;65468.63;4710546;30;20053;-80
2023/02/12 04:21:56;;;;;;;23.42;11.32;;;;;;;-146.47;100.00;65468.63;4725099;30;20521;-80
2023/02/12 04:24:49;;;;;;;24.45;10.10;;;;;;;-146.47;100.00;65468.63;4726038;30;20455;-80
2023/02/12 04:27:36;;;;;;;28.02;10.90;;;;;;;-146.47;100.00;65468.63;4701515;30;20107;-80
2023/02/12 04:30:11;;;;;;;21.63;10.75;;;;;;;-146.47;100.00;65468.63;4706825;30;20065;-80
2023/02/12 04:32:42;;;;;;;26.55;11.88;;;;;;;-146.47;100.00;65468.63;4704263;30;20107;-80
2023/02/12 04:35:30;;;;;;;23.80;11.15;;;;;;;-146.47;100.00;65468.63;4711281;30;20836;-80
2023/02/12 04:38:15;;;;;;;26.02;11.75;;;;;;;-146.47;100.00;65468.63;4710702;30;20115;-80
2023/02/12 04:40:41;;;;;;;24.55;11.15;;;;;;;-146.47;100.00;65468.63;4728938;30;20059;-80
2023/02/12 04:43:08;;;;;;;24.33;11.00;;;;;;;-146.47;100.00;65468.63;4708964;30;20053;-80
2023/02/12 04:45:34;;;;;;;24.58;11.18;;;;;;;-146.47;100.00;65468.63;4713993;30;20045;-80
2023/02/12 04:48:01;;;;;;;22.83;11.52;;;;;;;-146.47;100.00;65468.63;4709459;30;20045;-79
2023/02/12 04:50:40;;;;;;;26.83;12.02;;;;;;;-146.47;100.00;65468.63;4703933;30;20058;-79
2023/02/12 04:53:07;;;;;;;25.88;11.25;;;;;;;-146.47;100.00;65468.63;4713995;30;20691;-80
2023/02/12 04:55:32;;;;;;;31.15;12.20;;;;;;;-146.47;100.00;65468.63;4708802;30;20519;-80
2023/02/12 04:57:58;;;;;;;24.75;11.32;;;;;;;-146.47;100.00;65468.63;4705991;30;20045;-80
2023/02/12 05:00:23;;;;;;;27.55;11.63;;;;;;;-146.47;100.00;65468.63;4703465;30;20050;-79
2023/02/12 05:02:49;;;;;;;25.25;11.25;;;;;;;-146.47;100.00;65468.63;4711805;30;20049;-80
2023/02/12 05:05:14;;;;;;;26.80;10.90;;;;;;;-146.47;100.00;65468.63;4713269;30;20049;-79
2023/02/12 05:07:40;;;;;;;23.38;11.57;;;;;;;-146.47;100.00;65468.63;4711373;30;20145;-79
2023/02/12 05:10:06;;;;;;;26.75;12.23;;;;;;;-146.47;100.00;65468.63;4715359;30;20589;-79
2023/02/12 05:12:32;;;;;;;21.92;10.70;;;;;;;-146.47;100.00;65468.63;4706246;30;20076;-79
2023/02/12 05:14:57;;;;;;;25.75;10.80;;;;;;;-146.47;100.00;65468.63;4714640;30;20507;-80
2023/02/12 05:17:23;;;;;;;27.38;11.63;;;;;;;-146.47;100.00;65468.63;4709677;30;20053;-80
2023/02/12 05:19:49;;;;;;;26.45;11.45;;;;;;;-146.47;100.00;65468.63;4705707;30;20052;-80
2023/02/12 05:22:15;;;;;;;26.20;11.35;;;;;;;-146.47;100.00;65468.63;4705057;30;20056;-79
2023/02/12 05:24:41;;;;;;;25.73;10.93;;;;;;;-146.47;100.00;65468.63;4711849;30;20049;-80
2023/02/12 05:27:07;;;;;;;28.60;11.50;;;;;;;-146.47;100.00;65468.63;4709941;30;20427;-80
2023/02/12 05:29:34;;;;;;;23.23;11.25;;;;;;;-146.47;100.00;65468.63;4705447;30;20053;-79
2023/02/12 05:31:59;;;;;;;24.27;11.43;;;;;;;-146.47;100.00;65468.63;4704494;30;20053;-79
2023/02/12 05:34:25;;;;;;;22.10;11.25;;;;;;;-146.47;100.00;65468.63;4704932;30;20103;-80
2023/02/12 05:36:50;;;;;;;24.95;11.20;;;;;;;-146.47;100.00;65468.63;4710749;30;20103;-79
2023/02/12 05:39:16;;;;;;;21.90;10.27;;;;;;;-146.47;100.00;65468.63;4709334;30;20056;-79
2023/02/12 05:41:41;;;;;;;26.02;12.07;;;;;;;-146.47;100.00;65468.63;4702144;30;20057;-79
2023/02/12 05:44:10;;;;;;;26.95;11.73;;;;;;;-146.47;100.00;65468.63;4715016;30;20053;-79
2023/02/12 05:46:35;;;;;;;30.08;12.55;;;;;;;-146.47;100.00;65468.63;4702998;30;20056;-79
2023/02/12 05:49:01;;;;;;;25.10;11.10;;;;;;;-146.47;100.00;65468.63;4711305;30;20053;-79
2023/02/12 05:51:27;;;;;;;23.75;11.77;;;;;;;-146.47;100.00;65468.63;4707366;30;20100;-79
2023/02/12 05:53:58;;;;;;;28.80;11.98;;;;;;;-146.47;100.00;65468.63;4716841;30;20126;-82
2023/02/12 05:56:36;;;;;;;24.35;11.00;;;;;;;-146.47;100.00;65468.63;4711551;30;20053;-80
2023/02/12 05:59:04;;;;;;;33.15;11.88;;;;;;;-146.47;100.00;65468.63;4710709;30;20136;-80
2023/02/12 06:01:35;;;;;;;31.38;11.35;;;;;;;-146.47;100.00;65468.63;4710342;30;20503;-80
2023/02/12 06:04:02;;;;;;;28.58;11.40;;;;;;;-146.47;100.00;65468.63;4706061;30;20045;-80
2023/02/12 06:06:29;;;;;;;27.92;11.80;;;;;;;-146.47;100.00;65468.63;4706042;30;20511;-80
2023/02/12 06:08:55;;;;;;;24.52;10.63;;;;;;;-146.47;100.00;65468.63;4705807;30;20499;-80
2023/02/12 06:11:21;;;;;;;22.35;10.90;;;;;;;-146.47;100.00;65468.63;4711841;30;20053;-80
2023/02/12 06:13:47;;;;;;;28.45;10.90;;;;;;;-146.47;100.00;65468.63;4707390;30;20506;-79
2023/02/12 06:16:25;;;;;;;27.20;10.70;;;;;;;-146.47;100.00;65468.63;4707668;30;20054;-80
2023/02/12 06:18:51;;;;;;;34.28;10.73;;;;;;;-146.47;100.00;65468.63;4710784;30;20049;-81
2023/02/12 06:21:19;;;;;;;25.70;11.13;;;;;;;-146.47;100.00;65468.63;4702614;30;20052;-80
2023/02/12 06:23:45;;;;;;;22.35;9.88;;;;;;;-146.47;100.00;65468.63;4704892;30;20115;-81
2023/02/12 06:26:11;;;;;;;24.60;10.63;;;;;;;-146.47;100.00;65468.63;4701642;30;20057;-82
2023/02/12 06:28:36;;;;;;;21.75;10.88;;;;;;;-146.47;100.00;65468.63;4709123;30;20041;-81
2023/02/12 06:31:02;;;;;;;24.60;10.30;;;;;;;-146.47;100.00;65468.63;4705854;30;20056;-80
2023/02/12 06:33:27;;;;;;;21.17;10.50;;;;;;;-146.47;100.00;65468.63;4708362;30;20049;-80
2023/02/12 06:35:53;;;;;;;23.17;11.10;;;;;;;-146.47;100.00;65468.63;4714069;30;20048;-81
2023/02/12 06:38:19;;;;;;;27.95;11.00;;;;;;;-146.47;100.00;65468.63;4700191;30;20061;-81
2023/02/12 06:40:44;;;;;;;26.70;10.68;;;;;;;-146.47;100.00;65468.63;4706322;30;20049;-81
2023/02/12 06:43:10;;;;;;;22.88;10.15;;;;;;;-146.47;100.00;65468.63;4709178;30;20077;-80
2023/02/12 06:45:35;;;;;;;27.55;10.10;;;;;;;-146.47;100.00;65468.63;4713822;30;20099;-80
2023/02/12 06:48:01;;;;;;;23.20;10.15;;;;;;;-146.47;100.00;65468.63;4702435;30;20053;-81
2023/02/12 06:50:27;;;;;;;26.25;10.50;;;;;;;-146.47;100.00;65468.63;4698109;30;20419;-80
2023/02/12 06:52:52;;;;;;;21.65;10.40;;;;;;;-146.47;100.00;65468.63;4696346;30;20057;-82
2023/02/12 06:55:18;;;;;;;21.85;10.18;;;;;;;-146.47;100.00;65468.63;4713353;30;20171;-80
2023/02/12 06:57:43;;;;;;;20.88;9.63;;;;;;;-146.47;100.00;65468.63;4710505;30;20056;-76
2023/02/12 07:00:10;;;;;;;21.08;9.68;;;;;;;-146.47;100.00;65468.63;4705208;30;20131;-79
2023/02/12 07:02:35;;;;;;;18.52;9.25;;;;;;;-146.47;100.00;65468.63;4707583;30;20046;-76
2023/02/12 07:05:01;;;;;;;23.63;9.48;;;;;;;-146.47;100.00;65468.63;4704960;30;20060;-78
2023/02/12 07:07:27;;;;;;;24.48;9.68;;;;;;;-146.47;100.00;65468.63;4711149;30;20045;-77
2023/02/12 07:09:52;;;;;;;20.77;9.23;;;;;;;-146.47;100.00;65468.63;4711952;30;20061;-79
2023/02/12 07:12:18;;;;;;;24.13;9.63;;;;;;;-146.47;100.00;65468.63;4705680;30;20049;-77
2023/02/12 07:14:43;;;;;;;25.08;9.85;;;;;;;-146.47;100.00;65468.63;4711332;30;20073;-81
2023/02/12 07:17:09;;;;;;;24.90;10.35;;;;;;;-146.47;100.00;65468.63;4712399;30;20045;-81
2023/02/12 07:19:36;;;;;;;23.35;10.80;;;;;;;-146.47;100.00;65468.63;4710030;30;20095;-75
2023/02/12 07:22:02;;;;;;;27.45;10.43;;;;;;;-146.47;100.00;65468.63;4707550;30;20049;-78
2023/02/12 07:24:28;;;;;;;23.95;10.30;;;;;;;-146.47;100.00;65468.63;4703114;30;20042;-78
2023/02/12 07:26:54;;;;;;;22.80;9.68;;;;;;;-146.47;100.00;65468.63;4704886;30;20076;-78
2023/02/12 07:29:19;;;;;;;22.65;9.65;;;;;;;-146.47;100.00;65468.63;4707371;30;20542;-77
2023/02/12 07:31:45;;;;;;;21.20;9.38;;;;;;;-146.47;100.00;65468.63;4707961;30;20048;-76
2023/02/12 07:34:11;;;;;;;23.92;8.95;;;;;;;-146.47;100.00;65468.63;4703233;30;20530;-77
2023/02/12 07:36:37;;;;;;;20.00;9.02;;;;;;;-146.47;100.00;65468.63;4708748;30;20049;-78
2023/02/12 07:39:03;;;;;;;22.20;9.30;;;;;;;-146.47;100.00;65468.63;4711770;30;20079;-76
2023/02/12 07:41:34;;;;;;;25.38;11.02;;;;;;;-146.47;100.00;65468.63;4710964;30;20584;-78
2023/02/12 07:44:09;;;;;;;24.60;10.32;;;;;;;-146.47;100.00;65468.63;4703404;30;20534;-78
2023/02/12 07:46:37;;;;;;;23.75;9.90;;;;;;;-146.47;100.00;65468.63;4701570;30;20100;-77
2023/02/12 07:49:05;;;;;;;30.17;9.65;;;;;;;-146.47;100.00;65468.63;4704865;30;20056;-80
2023/02/12 07:51:33;;;;;;;27.80;11.10;;;;;;;-146.47;100.00;65468.63;4705290;30;20515;-78
2023/02/12 07:54:01;;;;;;;26.45;11.73;;;;;;;-146.47;100.00;65468.63;4708606;30;20048;-77
2023/02/12 07:56:31;;;;;;;24.85;10.55;;;;;;;-146.47;100.00;65468.63;4703140;30;20045;-77
2023/02/12 07:59:03;;;;;;;29.85;11.18;;;;;;;-146.47;100.00;65468.63;4712363;30;20052;-77
2023/02/12 08:01:34;;;;;;;25.90;10.43;;;;;;;-146.47;100.00;65468.63;4710829;30;20056;-79
2023/02/12 08:04:12;;;;;;;25.88;11.43;;;;;;;-146.47;100.00;65468.63;4711121;30;20041;-79
2023/02/12 08:06:41;;;;;;;26.80;11.00;;;;;;;-146.47;100.00;65468.63;4714852;30;20081;-79
2023/02/12 08:09:10;;;;;;;26.23;10.85;;;;;;;-146.47;100.00;65468.63;4713108;30;20109;-78
2023/02/12 08:11:37;;;;;;;28.63;11.63;;;;;;;-146.47;100.00;65468.63;4712283;30;20469;-77
2023/02/12 08:14:03;;;;;;;35.38;13.02;;;;;;;-146.47;100.00;65468.63;4711186;30;20129;-77
2023/02/12 08:16:29;;;;;;;33.95;13.52;;;;;;;-146.47;100.00;65468.63;4704918;30;20053;-75
2023/02/12 08:18:55;;;;;;;33.22;13.23;;;;;;;-146.47;100.00;65468.63;4709880;30;20064;-77
2023/02/12 08:21:23;;;;;;;38.38;14.13;;;;;;;-146.47;100.00;65468.63;4709095;30;20053;-78
2023/02/12 08:23:49;;;;;;;34.85;14.52;;;;;;;-146.47;100.00;65468.63;4705952;30;20053;-78
2023/02/12 08:26:20;;;;;;;43.35;16.13;;;;;;;-146.47;100.00;65468.63;4706635;30;20473;-77
2023/02/12 08:28:58;;;;;;;40.30;16.08;;;;;;;-146.47;100.00;65468.63;4711971;30;20069;-77
2023/02/12 08:31:29;;;;;;;41.72;15.55;;;;;;;-146.47;100.00;65468.63;4710350;30;20068;-78
2023/02/12 08:33:55;;;;;;;49.20;15.30;;;;;;;-146.47;100.00;65468.63;4704765;30;20056;-77
2023/02/12 08:36:24;;;;;;;52.08;17.23;;;;;;;-146.47;100.00;65468.63;4704759;30;20565;-78
2023/02/12 08:38:50;;;;;;;39.17;15.25;;;;;;;-146.47;100.00;65468.63;4709038;30;20057;-83
2023/02/12 08:41:19;;;;;;;40.55;15.98;;;;;;;-146.47;100.00;65468.63;4712732;30;20506;-78
2023/02/12 08:43:45;;;;;;;42.85;16.20;;;;;;;-146.47;100.00;65468.63;4709410;30;20045;-77
2023/02/12 08:46:18;;;;;;;45.20;17.38;;;;;;;-146.47;100.00;65468.63;4706128;30;20503;-79
2023/02/12 08:48:44;;;;;;;43.08;16.42;;;;;;;-146.47;100.00;65468.63;4711643;30;20050;-80
2023/02/12 08:51:18;;;;;;;57.92;18.17;;;;;;;-146.47;100.00;65468.63;4707533;30;20115;-79
2023/02/12 08:53:46;;;;;;;42.17;15.95;;;;;;;-146.47;100.00;65468.63;4704151;30;20053;-82
2023/02/12 08:56:14;;;;;;;46.53;16.70;;;;;;;-146.47;100.00;65468.63;4708537;30;20052;-79
2023/02/12 08:58:39;;;;;;;43.10;16.88;;;;;;;-146.47;100.00;65468.63;4711896;30;20130;-77
2023/02/12 09:01:10;;;;;;;56.08;18.13;;;;;;;-146.47;100.00;65468.63;4710948;30;20053;-79
2023/02/12 09:03:35;;;;;;;37.58;15.00;;;;;;;-146.47;100.00;65468.63;4705416;30;20088;-78
2023/02/12 09:06:03;;;;;;;41.15;16.77;;;;;;;-146.47;100.00;65468.63;4708507;30;20041;-77
2023/02/12 09:08:29;;;;;;;44.97;16.83;;;;;;;-146.47;100.00;65468.63;4721960;30;20049;-77
2023/02/12 09:10:54;;;;;;;43.17;17.23;;;;;;;-146.47;100.00;65468.63;4706172;30;20231;-77
2023/02/12 09:13:20;;;;;;;45.67;17.95;;;;;;;-146.47;100.00;65468.63;4711792;30;20078;-77
2023/02/12 09:15:46;;;;;;;44.05;17.02;;;;;;;-146.47;100.00;65468.63;4707498;30;20049;-78
2023/02/12 09:18:13;;;;;;;37.35;14.82;;;;;;;-146.47;100.00;65468.63;4705211;30;20053;-80
2023/02/12 09:20:41;;;;;;;36.38;15.02;;;;;;;-146.47;100.00;65468.63;4711144;30;20426;-78
2023/02/12 09:23:09;;;;;;;38.70;14.50;;;;;;;-146.47;100.00;65468.63;4711313;30;20259;-78
2023/02/12 09:25:39;;;;;;;38.70;14.80;;;;;;;-146.47;100.00;65468.63;4708592;30;20056;-78
2023/02/12 09:28:04;;;;;;;27.05;11.85;;;;;;;-146.47;100.00;65468.63;4709936;30;20049;-77
2023/02/12 09:30:30;;;;;;;27.35;12.55;;;;;;;-146.47;100.00;65468.63;4710280;30;20507;-77
2023/02/12 09:32:55;;;;;;;30.90;12.55;;;;;;;-146.47;100.00;65468.63;4710481;30;20128;-79
2023/02/12 09:35:22;;;;;;;31.70;12.43;;;;;;;-146.47;100.00;65468.63;4716088;30;20538;-79
2023/02/12 09:37:47;;;;;;;30.65;13.63;;;;;;;-146.47;100.00;65468.63;4713802;30;20080;-78
2023/02/12 09:40:22;;;;;;;30.08;12.00;;;;;;;-146.47;100.00;65468.63;4713679;30;20060;-78
2023/02/12 09:43:17;;;;;;;32.92;13.15;;;;;;;-146.47;100.00;65468.63;4717209;30;20049;-78
2023/02/12 09:45:54;;;;;;;28.23;11.07;;;;;;;-146.47;100.00;65468.63;4713097;30;20065;-77
2023/02/12 09:48:38;;;;;;;22.00;8.77;;;;;;;-146.47;100.00;65468.63;4711240;30;20052;-78
2023/02/12 09:51:07;;;;;;;22.90;9.82;;;;;;;-146.47;100.00;65468.63;4703745;30;20458;-77
2023/02/12 09:53:37;;;;;;;16.45;7.75;;;;;;;-146.47;100.00;65468.63;4715107;30;20478;-79
2023/02/12 09:56:11;;;;;;;22.98;9.25;;;;;;;-146.47;100.00;65468.63;4709433;30;20132;-77
2023/02/12 09:58:44;;;;;;;20.25;7.95;;;;;;;-146.47;100.00;65468.63;4711397;30;20509;-77
2023/02/12 10:01:15;;;;;;;20.90;8.63;;;;;;;-146.47;100.00;65468.63;4708399;30;20171;-78
2023/02/12 10:03:42;;;;;;;12.48;5.60;;;;;;;-146.47;100.00;65468.63;4705388;30;20058;-77
2023/02/12 10:06:14;;;;;;;20.77;5.68;;;;;;;-146.47;100.00;65468.63;4704658;30;20057;-78
2023/02/12 10:08:49;;;;;;;7.32;3.40;;;;;;;-146.47;100.00;65468.63;4713355;30;20107;-77
2023/02/12 10:11:37;;;;;;;9.45;3.28;;;;;;;-146.47;100.00;65468.63;4704303;30;20061;-77
2023/02/12 10:14:36;;;;;;;5.15;2.78;;;;;;;-146.47;100.00;65468.63;4705173;30;20049;-77
2023/02/12 10:17:13;;;;;;;8.18;3.30;;;;;;;-146.47;100.00;65468.63;4719234;30;20049;-75
2023/02/12 10:20:07;;;;;;;7.28;3.38;;;;;;;-146.47;100.00;65468.63;4704288;30;20049;-77
2023/02/12 10:23:11;;;;;;;5.18;2.38;;;;;;;-146.47;100.00;65468.63;4707010;30;20053;-78
2023/02/12 10:25:52;;;;;;;5.88;2.67;;;;;;;-146.47;100.00;65468.63;4706729;30;20481;-79
2023/02/12 10:28:25;;;;;;;5.00;2.90;;;;;;;-146.47;100.00;65468.63;4701393;30;20494;-78
2023/02/12 10:30:56;;;;;;;11.70;4.70;;;;;;;-146.47;100.00;65468.63;4718447;30;20103;-76
2023/02/12 10:33:38;;;;;;;9.55;4.57;;;;;;;-146.47;100.00;65468.63;4711423;30;20048;-79
2023/02/12 10:36:28;;;;;;;7.32;3.83;;;;;;;-146.47;100.00;65468.63;4702051;30;20115;-78
2023/02/12 10:39:22;;;;;;;7.55;3.97;;;;;;;-146.47;100.00;65468.63;4703742;30;20048;-78
2023/02/12 10:42:03;;;;;;;9.05;4.63;;;;;;;-146.47;100.00;65468.63;4710484;30;20078;-77
2023/02/12 10:48:20;;;;;;;5.53;3.00;;;;;;;10.78;85.85;97384.22;5133450;27;20916;-75
2023/02/12 10:51:04;;;;;;;5.20;2.83;;;;;;;10.78;86.57;97389.50;5109524;27;20043;-75
2023/02/12 10:53:32;;;;;;;7.90;3.00;;;;;;;10.24;90.15;97391.97;5112960;28;20032;-74
2023/02/12 10:56:10;;;;;;;7.65;3.63;;;;;;;9.81;97.74;97395.47;5110624;28;20410;-73
2023/02/12 10:58:39;;;;;;;6.78;3.35;;;;;;;10.79;85.30;97385.84;5105800;28;20144;-75
2023/02/12 11:01:14;;;;;;;6.43;3.63;;;;;;;10.74;87.17;97385.69;5110934;28;20036;-74
2023/02/12 11:03:39;;;;;;;8.80;4.35;;;;;;;10.35;87.94;97383.34;5116616;28;20036;-76
2023/02/12 11:06:21;;;;;;;9.93;4.80;;;;;;;11.59;83.01;97379.31;5109611;28;20043;-75
2023/02/12 11:08:47;;;;;;;11.02;4.72;;;;;;;11.40;81.46;97375.97;5105995;28;20105;-75
2023/02/12 11:11:18;;;;;;;11.07;4.82;;;;;;;11.24;83.02;97381.94;5099762;28;20578;-74
2023/02/12 11:13:52;;;;;;;9.02;4.57;;;;;;;12.17;77.20;97368.94;5105265;28;20040;-74
2023/02/12 11:16:37;;;;;;;16.48;5.10;;;;;;;11.84;77.24;97370.34;5108991;28;20044;-75
2023/02/12 11:19:05;;;;;;;9.45;4.55;;;;;;;11.85;75.89;97371.97;5100580;28;20105;-75
2023/02/12 11:21:33;;;;;;;9.77;4.78;;;;;;;10.29;86.58;97375.53;5109830;27;20056;-75